| time (UTC) | temp C | wind direction | speed KPH | gust KPH | rain 1hr cm | rain 24hr cm | rain mn cm | humidity % | barometer mb |
| 20260502123041 | 23 | 312 | 8.0 | 16.1 | 0.00 | 0.00 | 0.00 | 23 | 1007.5 |
| 20260502121521 | 23 | 311 | 1.6 | 8.0 | 0.00 | 0.00 | 0.00 | 24 | 1007.2 |
| 20260502114501 | 23 | 298 | 1.6 | 6.4 | 0.00 | 0.00 | 0.00 | 24 | 1007.0 |
| 20260502113059 | 24 | 44 | 0.0 | 12.9 | 0.00 | 0.00 | 0.00 | 24 | 1007.0 |
| 20260502111606 | 24 | 306 | 8.0 | 16.1 | 0.00 | 0.00 | 0.00 | 23 | 1006.9 |
| 20260502110039 | 23 | 302 | 8.0 | 12.9 | 0.00 | 0.00 | 0.00 | 24 | 1007.0 |
| 20260502104538 | 23 | 324 | 6.4 | 12.9 | 0.00 | 0.00 | 0.00 | 25 | 1007.0 |
| 20260502103017 | 24 | 275 | 4.8 | 8.0 | 0.00 | 0.00 | 0.00 | 24 | 1007.0 |
| 20260502101526 | 23 | 287 | 6.4 | 12.9 | 0.00 | 0.00 | 0.00 | 24 | 1006.9 |
| 20260502091531 | 25 | 238 | 0.0 | 0.0 | 0.00 | 0.00 | 0.00 | 23 | 1007.3 |
| 20260502071503 | 26 | 318 | 3.2 | 9.7 | 0.00 | 0.00 | 0.00 | 25 | 1007.1 |
| 20260502070045 | 27 | 265 | 4.8 | 11.3 | 0.00 | 0.00 | 0.00 | 25 | 1007.0 |
| 20260502064543 | 27 | 277 | 8.0 | 16.1 | 0.00 | 0.00 | 0.00 | 24 | 1007.3 |
| 20260502063029 | 27 | 311 | 6.4 | 9.7 | 0.00 | 0.00 | 0.00 | 24 | 1007.3 |
| 20260502061525 | 28 | 324 | 4.8 | 12.9 | 0.00 | 0.00 | 0.00 | 25 | 1007.4 |
| 20260502060007 | 28 | 329 | 3.2 | 12.9 | 0.00 | 0.00 | 0.00 | 29 | 1007.3 |
| 20260502054507 | 28 | 346 | 6.4 | 14.5 | 0.00 | 0.00 | 0.00 | 29 | 1006.9 |
| 20260502053101 | 28 | 340 | 3.2 | 16.1 | 0.00 | 0.00 | 0.00 | 29 | 1007.0 |
| 20260502051603 | 29 | 301 | 4.8 | 14.5 | 0.00 | 0.00 | 0.00 | 27 | 1007.0 |
| 20260502050037 | 30 | 329 | 4.8 | 14.5 | 0.00 | 0.00 | 0.00 | 27 | 1006.9 |
| 20260502044536 | 30 | 317 | 14.5 | 19.3 | 0.00 | 0.00 | 0.00 | 26 | 1006.9 |
| 20260502043013 | 30 | 304 | 9.7 | 17.7 | 0.00 | 0.00 | 0.00 | 25 | 1006.6 |
| 20260502041513 | 30 | 290 | 8.0 | 17.7 | 0.00 | 0.00 | 0.00 | 24 | 1006.3 |
| 20260502040055 | 31 | 304 | 8.0 | 14.5 | 0.00 | 0.00 | 0.00 | 23 | 1006.4 |
| 20260502034555 | 31 | 337 | 4.8 | 14.5 | 0.00 | 0.00 | 0.00 | 22 | 1006.0 |
| 20260502033050 | 31 | 309 | 6.4 | 14.5 | 0.00 | 0.00 | 0.00 | 20 | 1005.8 |
| 20260502031537 | 31 | 291 | 4.8 | 14.5 | 0.00 | 0.00 | 0.00 | 19 | 1005.7 |
| 20260502030019 | 32 | 266 | 6.4 | 17.7 | 0.00 | 0.00 | 0.00 | 19 | 1005.4 |
| 20260502024518 | 32 | 234 | 8.0 | 20.9 | 0.00 | 0.00 | 0.00 | 19 | 1005.2 |
| 20260502023101 | 32 | 266 | 8.0 | 16.1 | 0.00 | 0.00 | 0.00 | 19 | 1005.1 |
| 20260502021600 | 33 | 261 | 9.7 | 17.7 | 0.00 | 0.00 | 0.00 | 18 | 1005.0 |
| 20260502020052 | 35 | 226 | 6.4 | 14.5 | 0.00 | 0.00 | 0.00 | 15 | 1004.9 |
| 20260502014542 | 35 | 192 | 3.2 | 6.4 | 0.00 | 0.00 | 0.00 | 10 | 1004.9 |
| 20260502013025 | 35 | 194 | 0.0 | 6.4 | 0.00 | 0.00 | 0.00 | 10 | 1004.9 |
| 20260502011525 | 35 | 127 | 4.8 | 8.0 | 0.00 | 0.00 | 0.00 | 10 | 1004.8 |
| 20260502010006 | 36 | 67 | 1.6 | 6.4 | 0.00 | 0.00 | 0.00 | 9 | 1004.7 |
| 20260502004506 | 37 | 316 | 3.2 | 6.4 | 0.00 | 0.00 | 0.00 | 9 | 1004.6 |
| 20260502003048 | 37 | 24 | 6.4 | 12.9 | 0.00 | 0.00 | 0.00 | 9 | 1004.7 |
| 20260502001558 | 37 | 92 | 0.0 | 8.0 | 0.00 | 0.00 | 0.00 | 9 | 1004.7 |
| 20260502000030 | 37 | 360 | 1.6 | 9.7 | 0.00 | 0.00 | 0.00 | 9 | 1004.9 |
| 20260501234525 | 37 | 36 | 3.2 | 12.9 | 0.00 | 0.00 | 0.00 | 10 | 1004.9 |
| 20260501233007 | 36 | 30 | 4.8 | 12.9 | 0.00 | 0.00 | 0.00 | 10 | 1004.9 |
| 20260501231505 | 35 | 111 | 12.9 | 17.7 | 0.00 | 0.00 | 0.00 | 10 | 1005.0 |
| 20260501230049 | 35 | 69 | 4.8 | 17.7 | 0.00 | 0.00 | 0.00 | 10 | 1005.2 |
| 20260501224548 | 36 | 102 | 4.8 | 12.9 | 0.00 | 0.00 | 0.00 | 10 | 1005.4 |
| 20260501223046 | 36 | 115 | 9.7 | 16.1 | 0.00 | 0.00 | 0.00 | 10 | 1005.6 |
| 20260501221528 | 36 | 76 | 4.8 | 14.5 | 0.00 | 0.00 | 0.00 | 10 | 1005.7 |
| 20260501220006 | 35 | 175 | 8.0 | 16.1 | 0.00 | 0.00 | 0.00 | 11 | 1006.0 |
| 20260501214504 | 35 | 98 | 4.8 | 16.1 | 0.00 | 0.00 | 0.00 | 11 | 1006.3 |
| 20260501213045 | 35 | 115 | 4.8 | 17.7 | 0.00 | 0.00 | 0.00 | 11 | 1006.7 |
| 20260501211543 | 35 | 146 | 0.0 | 17.7 | 0.00 | 0.00 | 0.00 | 11 | 1006.8 |
| 20260501210022 | 35 | 135 | 3.2 | 20.9 | 0.00 | 0.00 | 0.00 | 12 | 1007.0 |
| 20260501204524 | 34 | 141 | 9.7 | 17.7 | 0.00 | 0.00 | 0.00 | 14 | 1007.2 |
| 20260501203059 | 33 | 80 | 11.3 | 19.3 | 0.00 | 0.00 | 0.00 | 13 | 1007.2 |
| 20260501201607 | 33 | 98 | 3.2 | 16.1 | 0.00 | 0.00 | 0.00 | 17 | 1007.3 |
| 20260501200036 | 33 | 81 | 6.4 | 17.7 | 0.00 | 0.00 | 0.00 | 18 | 1007.6 |
| 20260501194534 | 33 | 109 | 6.4 | 17.7 | 0.00 | 0.00 | 0.00 | 20 | 1007.7 |
| 20260501193013 | 32 | 144 | 4.8 | 12.9 | 0.00 | 0.00 | 0.00 | 21 | 1007.9 |
| 20260501191509 | 32 | 117 | 8.0 | 14.5 | 0.00 | 0.00 | 0.00 | 24 | 1008.0 |
| 20260501190048 | 31 | 78 | 3.2 | 12.9 | 0.00 | 0.00 | 0.00 | 25 | 1008.4 |
| 20260501184545 | 30 | 107 | 3.2 | 12.9 | 0.00 | 0.00 | 0.00 | 27 | 1008.5 |
| 20260501183025 | 30 | 134 | 1.6 | 11.3 | 0.00 | 0.00 | 0.00 | 28 | 1008.7 |
| 20260501181518 | 30 | 128 | 6.4 | 12.9 | 0.00 | 0.00 | 0.00 | 29 | 1008.9 |
| 20260501174607 | 28 | 132 | 8.0 | 14.5 | 0.00 | 0.00 | 0.00 | 31 | 1009.0 |
| 20260501173038 | 28 | 51 | 6.4 | 12.9 | 0.00 | 0.00 | 0.00 | 33 | 1008.9 |
| 20260501171533 | 28 | 97 | 3.2 | 16.1 | 0.00 | 0.00 | 0.00 | 32 | 1009.1 |
| 20260501170005 | 28 | 69 | 1.6 | 11.3 | 0.00 | 0.00 | 0.00 | 31 | 1009.2 |
| 20260501164502 | 27 | 51 | 3.2 | 8.0 | 0.00 | 0.00 | 0.00 | 33 | 1009.2 |
| 20260501163043 | 27 | 74 | 0.0 | 6.4 | 0.00 | 0.00 | 0.00 | 33 | 1008.9 |
| 20260501161537 | 26 | 92 | 1.6 | 9.7 | 0.00 | 0.00 | 0.00 | 35 | 1008.8 |
| 20260501160017 | 26 | 51 | 3.2 | 6.4 | 0.00 | 0.00 | 0.00 | 35 | 1008.6 |
| 20260501154512 | 26 | 40 | 1.6 | 6.4 | 0.00 | 0.00 | 0.00 | 36 | 1008.8 |
| 20260501153049 | 25 | 14 | 0.0 | 8.0 | 0.00 | 0.00 | 0.00 | 37 | 1008.6 |
| 20260501151551 | 24 | 61 | 0.0 | 1.6 | 0.00 | 0.00 | 0.00 | 39 | 1008.4 |
| 20260501150030 | 22 | 161 | 0.0 | 4.8 | 0.00 | 0.00 | 0.00 | 41 | 1008.4 |